Time;durP1;ratioP1;P1;durP2;ratioP2;P2;SDS_P1;SDS_P2;PMS_P1;PMS_P2;Temp;Humidity;BMP_temperature;BMP_pressure;BME280_temperature;BME280_humidity;BME280_pressure;Samples;Min_cycle;Max_cycle;Signal;HPM_P1;HPM_P2
2021/04/22 00:02:26;;;;;;;13.07;12.10;;;24.00;83.10;;;;;;3620029;39;20495;-45
2021/04/22 00:04:52;;;;;;;12.83;11.73;;;24.00;83.10;;;;;;3620867;39;20498;-46
2021/04/22 00:07:20;;;;;;;12.83;11.80;;;24.00;83.20;;;;;;3620407;39;20505;-46
2021/04/22 00:09:48;;;;;;;13.53;12.33;;;24.00;83.10;;;;;;3621751;39;20479;-47
2021/04/22 00:12:15;;;;;;;12.30;11.40;;;24.00;83.20;;;;;;3620819;39;20735;-48
2021/04/22 00:14:42;;;;;;;13.17;12.07;;;24.10;83.30;;;;;;3619510;39;20492;-47
2021/04/22 00:17:09;;;;;;;13.80;12.60;;;24.00;83.20;;;;;;3619918;39;20490;-47
2021/04/22 00:19:36;;;;;;;12.60;11.70;;;24.10;83.30;;;;;;3619047;39;20496;-46
2021/04/22 00:22:03;;;;;;;11.73;11.00;;;24.00;83.20;;;;;;3619552;39;20484;-46
2021/04/22 00:24:30;;;;;;;11.80;11.07;;;24.00;83.30;;;;;;3619571;39;20507;-46
2021/04/22 00:27:05;;;;;;;11.33;10.63;;;24.10;83.40;;;;;;3618964;39;20500;-47
2021/04/22 00:29:33;;;;;;;12.97;12.03;;;24.10;83.40;;;;;;3628588;39;20552;-46
2021/04/22 00:32:01;;;;;;;12.93;12.00;;;24.00;83.40;;;;;;3630644;39;20520;-47
2021/04/22 00:34:29;;;;;;;12.13;11.33;;;24.10;83.50;;;;;;3631284;39;20493;-47
2021/04/22 00:36:55;;;;;;;11.40;10.60;;;24.10;83.50;;;;;;3630064;39;20702;-46
2021/04/22 00:39:22;;;;;;;13.83;12.53;;;24.00;83.40;;;;;;3630618;39;20884;-46
2021/04/22 00:41:48;;;;;;;12.60;11.57;;;24.00;83.40;;;;;;3630613;39;20561;-45
2021/04/22 00:44:15;;;;;;;13.30;12.20;;;24.10;83.50;;;;;;3621336;39;20507;-46
2021/04/22 00:46:43;;;;;;;12.67;11.43;;;24.00;83.50;;;;;;3631532;39;20491;-48
2021/04/22 00:49:09;;;;;;;14.13;12.60;;;24.10;83.60;;;;;;3621540;39;20505;-46
2021/04/22 00:51:36;;;;;;;13.27;12.03;;;24.00;83.50;;;;;;3629494;39;20508;-47
2021/04/22 00:54:03;;;;;;;13.03;11.27;;;24.00;83.50;;;;;;3630467;39;20483;-47
2021/04/22 00:56:31;;;;;;;12.60;11.80;;;24.00;83.60;;;;;;3621873;39;20559;-46
2021/04/22 00:58:57;;;;;;;12.93;11.93;;;24.10;83.70;;;;;;3631287;39;20862;-47
2021/04/22 01:01:25;;;;;;;13.80;12.70;;;24.00;83.60;;;;;;3630762;39;20512;-47
2021/04/22 01:03:53;;;;;;;12.77;11.87;;;24.10;83.70;;;;;;3631054;39;20508;-46
2021/04/22 01:06:21;;;;;;;12.40;11.53;;;24.00;83.70;;;;;;3630467;39;20847;-48
2021/04/22 01:08:48;;;;;;;12.70;11.37;;;24.00;83.70;;;;;;3629883;39;20568;-46
2021/04/22 01:11:14;;;;;;;13.87;12.87;;;24.10;83.80;;;;;;3630049;39;20568;-45
2021/04/22 01:13:41;;;;;;;12.37;11.47;;;24.00;83.70;;;;;;3629733;39;20662;-47
2021/04/22 01:16:08;;;;;;;12.87;11.97;;;24.10;83.90;;;;;;3631756;39;20780;-47
2021/04/22 01:18:34;;;;;;;12.67;11.70;;;24.10;83.90;;;;;;3631857;39;20589;-48
2021/04/22 01:21:03;;;;;;;12.53;11.73;;;24.10;83.90;;;;;;3630807;39;20670;-46
2021/04/22 01:23:30;;;;;;;13.00;11.90;;;24.00;83.80;;;;;;3631323;39;20756;-47
2021/04/22 01:25:57;;;;;;;12.10;11.40;;;24.00;84.60;;;;;;3631037;39;20744;-47
2021/04/22 01:28:24;;;;;;;13.00;11.90;;;24.00;83.90;;;;;;3630646;39;20542;-48
2021/04/22 01:30:54;;;;;;;12.80;11.70;;;24.00;83.90;;;;;;3629324;39;20483;-46
2021/04/22 01:33:26;;;;;;;12.80;11.80;;;24.00;84.00;;;;;;3631065;39;20811;-47
2021/04/22 01:35:55;;;;;;;13.17;12.17;;;24.00;83.90;;;;;;3620248;39;20474;-46
2021/04/22 01:38:22;;;;;;;11.97;11.10;;;24.10;84.10;;;;;;3630609;39;20496;-46
2021/04/22 01:40:50;;;;;;;12.30;11.40;;;24.00;84.00;;;;;;3630879;39;20529;-48
2021/04/22 01:43:17;;;;;;;13.03;11.97;;;24.00;83.90;;;;;;3630976;39;20496;-47
2021/04/22 01:45:44;;;;;;;12.93;11.93;;;24.00;84.00;;;;;;3630300;39;20818;-47
2021/04/22 01:48:10;;;;;;;11.57;10.77;;;24.00;84.00;;;;;;3630865;39;20496;-46
2021/04/22 01:50:37;;;;;;;12.43;11.37;;;24.10;84.10;;;;;;3630562;39;20873;-47
2021/04/22 01:53:07;;;;;;;13.30;12.17;;;24.00;84.00;;;;;;3621276;39;20854;-47
2021/04/22 01:55:36;;;;;;;11.73;10.93;;;24.00;84.10;;;;;;3620246;39;20554;-47
2021/04/22 01:58:05;;;;;;;12.20;11.30;;;24.00;84.10;;;;;;3620008;39;20489;-48
2021/04/22 02:00:34;;;;;;;12.43;11.53;;;24.10;84.20;;;;;;3620629;39;20474;-47
2021/04/22 02:03:01;;;;;;;12.10;11.30;;;24.00;84.10;;;;;;3621511;39;20555;-46
2021/04/22 02:05:28;;;;;;;11.63;10.87;;;24.00;84.10;;;;;;3621015;39;20960;-46
2021/04/22 02:07:55;;;;;;;12.20;11.40;;;24.00;84.10;;;;;;3621460;39;20493;-47
2021/04/22 02:10:21;;;;;;;12.73;11.83;;;24.00;84.20;;;;;;3619806;39;20489;-46
2021/04/22 02:12:48;;;;;;;12.40;11.60;;;24.10;84.30;;;;;;3620571;39;20471;-46
2021/04/22 02:15:20;;;;;;;11.77;11.00;;;24.00;84.20;;;;;;3619709;39;20476;-46
2021/04/22 02:17:48;;;;;;;11.90;11.10;;;24.00;84.20;;;;;;3620517;39;20491;-47
2021/04/22 02:20:16;;;;;;;11.53;10.70;;;24.10;84.30;;;;;;3620910;39;20513;-48
2021/04/22 02:22:43;;;;;;;12.97;12.17;;;24.00;84.30;;;;;;3620103;39;20497;-47
2021/04/22 02:25:12;;;;;;;12.30;11.40;;;24.00;84.30;;;;;;3618967;39;20484;-46
2021/04/22 02:27:40;;;;;;;13.03;12.03;;;24.00;84.20;;;;;;3611743;39;20488;-46
2021/04/22 02:30:11;;;;;;;13.13;12.23;;;24.00;84.30;;;;;;3609668;39;20476;-46
2021/04/22 02:32:39;;;;;;;12.70;11.90;;;24.10;84.40;;;;;;3609454;39;20538;-46
2021/04/22 02:35:08;;;;;;;13.10;12.27;;;24.00;84.40;;;;;;3609507;39;20494;-46
2021/04/22 02:37:35;;;;;;;13.90;12.70;;;24.10;84.50;;;;;;3609350;39;20601;-47
2021/04/22 02:40:04;;;;;;;12.67;11.73;;;24.00;84.40;;;;;;3609763;39;20479;-46
2021/04/22 02:42:30;;;;;;;12.53;11.73;;;24.10;84.40;;;;;;3609694;39;20483;-46
2021/04/22 02:44:57;;;;;;;12.53;11.70;;;24.10;84.50;;;;;;3610254;39;20494;-47
2021/04/22 02:47:24;;;;;;;13.23;12.40;;;24.00;84.40;;;;;;3610064;39;20474;-47
2021/04/22 02:49:51;;;;;;;13.60;12.70;;;24.00;84.40;;;;;;3609779;39;20558;-46
2021/04/22 02:52:18;;;;;;;12.77;11.97;;;24.00;84.50;;;;;;3605195;39;20551;-46
2021/04/22 02:54:44;;;;;;;13.20;12.40;;;24.00;84.40;;;;;;3619729;39;20484;-46
2021/04/22 02:57:13;;;;;;;13.43;12.53;;;24.10;84.60;;;;;;3619023;39;20474;-46
2021/04/22 02:59:40;;;;;;;13.33;12.33;;;24.00;84.40;;;;;;3619653;39;20862;-47
2021/04/22 03:02:07;;;;;;;13.40;12.50;;;24.00;84.40;;;;;;3620083;39;20593;-47
2021/04/22 03:04:34;;;;;;;12.83;11.93;;;24.10;84.60;;;;;;3619510;39;20487;-46
2021/04/22 03:07:02;;;;;;;13.07;11.97;;;24.00;84.40;;;;;;3619290;39;20853;-47
2021/04/22 03:09:28;;;;;;;13.50;12.50;;;24.10;84.60;;;;;;3620579;39;20469;-46
2021/04/22 03:11:55;;;;;;;12.97;12.17;;;24.10;84.60;;;;;;3620838;39;20496;-46
2021/04/22 03:14:22;;;;;;;13.30;12.37;;;24.10;84.60;;;;;;3619217;39;20496;-46
2021/04/22 03:16:51;;;;;;;13.63;12.60;;;24.10;84.60;;;;;;3619079;39;20477;-47
2021/04/22 03:19:17;;;;;;;12.73;11.93;;;24.10;84.60;;;;;;3620373;39;20504;-47
2021/04/22 03:21:44;;;;;;;13.17;12.37;;;24.10;84.60;;;;;;3620314;39;20482;-46
2021/04/22 03:24:12;;;;;;;12.50;11.63;;;24.10;84.70;;;;;;3620901;39;20468;-45
2021/04/22 03:26:39;;;;;;;14.23;13.23;;;24.10;85.30;;;;;;3619695;39;20492;-46
2021/04/22 03:29:05;;;;;;;13.37;12.50;;;24.10;84.60;;;;;;3625572;39;20490;-46
2021/04/22 03:31:32;;;;;;;13.03;12.17;;;24.10;84.60;;;;;;3629065;39;20704;-46
2021/04/22 03:33:59;;;;;;;13.53;12.47;;;24.10;84.60;;;;;;3629377;39;20472;-47
2021/04/22 03:36:26;;;;;;;13.40;12.50;;;24.10;84.60;;;;;;3627515;39;20498;-46
2021/04/22 03:38:54;;;;;;;12.67;11.77;;;24.10;84.70;;;;;;3628830;39;20571;-45
2021/04/22 03:41:22;;;;;;;14.23;13.33;;;24.10;84.70;;;;;;3628891;39;20524;-47
2021/04/22 03:43:48;;;;;;;13.67;12.67;;;24.10;84.70;;;;;;3628814;39;20499;-46
2021/04/22 03:46:15;;;;;;;12.70;11.70;;;24.10;84.70;;;;;;3629617;39;20569;-47
2021/04/22 03:48:42;;;;;;;14.17;13.27;;;24.10;84.70;;;;;;3629026;39;20809;-47
2021/04/22 03:51:08;;;;;;;14.00;13.10;;;24.10;84.60;;;;;;3630115;39;20495;-46
2021/04/22 03:53:35;;;;;;;12.80;12.10;;;24.20;84.70;;;;;;3628018;39;20484;-46
2021/04/22 03:56:03;;;;;;;13.77;12.97;;;24.20;84.70;;;;;;3628644;39;20501;-47
2021/04/22 03:58:30;;;;;;;14.10;13.20;;;24.20;84.70;;;;;;3627828;39;20583;-46
2021/04/22 04:00:57;;;;;;;13.37;12.57;;;24.20;84.60;;;;;;3628895;39;20546;-47
2021/04/22 04:03:23;;;;;;;13.40;12.57;;;24.20;84.50;;;;;;3627000;39;20488;-46
2021/04/22 04:05:50;;;;;;;13.60;12.80;;;24.20;84.50;;;;;;3627673;39;20483;-47
2021/04/22 04:08:17;;;;;;;14.07;13.23;;;24.30;84.60;;;;;;3626538;39;20498;-47
2021/04/22 04:10:45;;;;;;;14.10;13.23;;;24.30;84.50;;;;;;3627596;39;20568;-46
2021/04/22 04:13:13;;;;;;;14.33;13.43;;;24.30;84.50;;;;;;3627444;39;20567;-47
2021/04/22 04:15:45;;;;;;;13.87;13.07;;;24.30;85.20;;;;;;3627489;39;20484;-47
2021/04/22 04:18:12;;;;;;;15.50;14.37;;;24.30;84.40;;;;;;3626006;39;20730;-47
2021/04/22 04:20:39;;;;;;;14.00;13.10;;;24.30;84.30;;;;;;3627334;39;20477;-46
2021/04/22 04:23:05;;;;;;;14.60;13.73;;;24.40;84.40;;;;;;3626929;39;20476;-45
2021/04/22 04:25:33;;;;;;;14.67;13.67;;;24.40;84.40;;;;;;3625946;39;20569;-46
2021/04/22 04:28:00;;;;;;;13.57;12.77;;;24.40;84.40;;;;;;3626287;39;20505;-46
2021/04/22 04:30:26;;;;;;;14.40;13.50;;;24.40;84.30;;;;;;3626708;39;20477;-46
2021/04/22 04:32:54;;;;;;;14.77;13.83;;;24.40;84.30;;;;;;3615192;39;20480;-47
2021/04/22 04:35:21;;;;;;;12.33;11.33;;;24.40;84.30;;;;;;3622745;39;20496;-46
2021/04/22 04:37:47;;;;;;;13.67;12.70;;;24.50;84.40;;;;;;3615443;39;20469;-47
2021/04/22 04:40:15;;;;;;;14.33;13.43;;;24.40;84.20;;;;;;3614846;39;20608;-46
2021/04/22 04:42:42;;;;;;;14.67;13.67;;;24.50;84.30;;;;;;3614674;39;20527;-47
2021/04/22 04:45:11;;;;;;;13.43;12.53;;;24.50;84.20;;;;;;3614105;39;20529;-48
2021/04/22 04:47:38;;;;;;;13.60;12.80;;;24.50;84.20;;;;;;3614586;39;20654;-46
2021/04/22 04:50:08;;;;;;;13.37;12.57;;;24.50;84.20;;;;;;3616628;39;20484;-46
2021/04/22 04:52:35;;;;;;;13.50;12.70;;;24.50;84.20;;;;;;3615609;39;20476;-47
2021/04/22 04:55:03;;;;;;;13.17;12.40;;;24.50;84.10;;;;;;3614440;39;20636;-47
2021/04/22 04:57:30;;;;;;;12.17;11.47;;;24.60;84.20;;;;;;3616498;39;20615;-47
2021/04/22 04:59:56;;;;;;;13.10;12.30;;;24.60;84.20;;;;;;3624214;39;20819;-46
2021/04/22 05:02:23;;;;;;;13.63;12.50;;;24.60;84.10;;;;;;3622423;39;20483;-47
2021/04/22 05:04:50;;;;;;;13.73;12.80;;;24.60;84.10;;;;;;3624412;39;20534;-48
2021/04/22 05:07:17;;;;;;;13.03;12.20;;;24.60;84.10;;;;;;3623822;39;20495;-47
2021/04/22 05:09:43;;;;;;;13.53;12.70;;;24.60;84.00;;;;;;3623145;39;20672;-47
2021/04/22 05:12:11;;;;;;;13.43;12.73;;;24.60;84.00;;;;;;3620972;39;20491;-47
2021/04/22 05:14:37;;;;;;;13.83;12.93;;;24.70;84.00;;;;;;3620314;39;20576;-47
2021/04/22 05:17:04;;;;;;;14.00;13.10;;;24.70;84.00;;;;;;3619875;39;20572;-47
2021/04/22 05:19:30;;;;;;;14.13;13.30;;;24.70;84.00;;;;;;3611742;39;20485;-47
2021/04/22 05:21:57;;;;;;;14.47;13.60;;;24.70;84.00;;;;;;3619695;39;20486;-47
2021/04/22 05:24:25;;;;;;;13.40;12.57;;;24.70;84.00;;;;;;3619735;39;20491;-47
2021/04/22 05:26:51;;;;;;;12.70;11.90;;;24.70;84.00;;;;;;3618281;39;20754;-47
2021/04/22 05:29:18;;;;;;;13.27;12.47;;;24.70;84.00;;;;;;3617712;39;20732;-47
2021/04/22 05:31:45;;;;;;;12.43;11.53;;;24.70;84.00;;;;;;3618572;39;20488;-46
2021/04/22 05:34:11;;;;;;;12.80;12.00;;;24.70;84.00;;;;;;3618205;39;20889;-47
2021/04/22 05:36:38;;;;;;;13.73;12.87;;;24.70;84.00;;;;;;3612930;39;20476;-47
2021/04/22 05:39:05;;;;;;;13.40;12.53;;;24.80;84.10;;;;;;3608966;39;20569;-46
2021/04/22 05:41:33;;;;;;;13.77;12.97;;;24.70;83.90;;;;;;3608396;39;20746;-45
2021/04/22 05:44:00;;;;;;;11.90;11.20;;;24.80;84.00;;;;;;3608701;39;20697;-47
2021/04/22 05:46:27;;;;;;;13.77;12.73;;;24.80;84.00;;;;;;3606690;39;20500;-48
2021/04/22 05:48:55;;;;;;;12.73;11.90;;;24.80;83.90;;;;;;3606513;39;20501;-47
2021/04/22 05:51:22;;;;;;;12.53;11.70;;;24.80;83.90;;;;;;3607234;39;20474;-47
2021/04/22 05:53:48;;;;;;;12.37;11.57;;;24.80;83.90;;;;;;3606105;39;20485;-47
2021/04/22 05:56:15;;;;;;;12.50;11.60;;;24.80;83.90;;;;;;3603092;39;20492;-46
2021/04/22 05:58:43;;;;;;;12.60;11.80;;;24.80;83.90;;;;;;3607891;39;20747;-47
2021/04/22 06:01:09;;;;;;;12.20;11.43;;;24.80;83.90;;;;;;3612765;39;20503;-47
2021/04/22 06:03:36;;;;;;;12.13;11.37;;;24.80;83.90;;;;;;3614655;39;20514;-46
2021/04/22 06:06:02;;;;;;;12.97;12.07;;;24.80;83.90;;;;;;3614494;39;20619;-47
2021/04/22 06:08:29;;;;;;;12.20;11.40;;;24.80;83.90;;;;;;3613350;39;20489;-47
2021/04/22 06:10:55;;;;;;;12.60;11.80;;;24.80;83.90;;;;;;3612896;39;20850;-46
2021/04/22 06:13:22;;;;;;;12.57;11.63;;;24.80;83.90;;;;;;3614255;39;20499;-46
2021/04/22 06:15:49;;;;;;;11.30;10.60;;;24.80;83.90;;;;;;3615074;39;20926;-47
2021/04/22 06:18:16;;;;;;;13.03;11.83;;;24.80;83.90;;;;;;3609096;39;20516;-46
2021/04/22 06:20:43;;;;;;;13.13;12.03;;;24.80;83.90;;;;;;3611447;39;20499;-46
2021/04/22 06:23:09;;;;;;;12.63;11.73;;;24.80;84.00;;;;;;3612997;39;20869;-47
2021/04/22 06:25:36;;;;;;;12.63;11.83;;;24.80;84.10;;;;;;3613232;39;20745;-46
2021/04/22 06:28:03;;;;;;;13.63;12.37;;;24.80;84.20;;;;;;3610835;39;20496;-46
2021/04/22 06:30:29;;;;;;;13.67;12.60;;;24.80;84.40;;;;;;3612317;39;20545;-46
2021/04/22 06:32:56;;;;;;;15.53;13.17;;;24.80;84.60;;;;;;3613252;39;20488;-48
2021/04/22 06:35:24;;;;;;;13.77;12.70;;;24.80;84.70;;;;;;3613476;39;20480;-48
2021/04/22 06:37:51;;;;;;;16.27;13.40;;;24.80;84.80;;;;;;3614336;39;20570;-49
2021/04/22 06:40:19;;;;;;;14.03;12.67;;;24.80;85.00;;;;;;3611216;39;20509;-47
2021/04/22 06:42:47;;;;;;;14.23;13.10;;;24.80;85.20;;;;;;3601361;39;20713;-46
2021/04/22 06:45:16;;;;;;;16.40;13.40;;;24.80;85.50;;;;;;3614115;39;20761;-47
2021/04/22 06:47:44;;;;;;;13.37;12.13;;;24.80;85.60;;;;;;3601751;39;20509;-46
2021/04/22 06:50:14;;;;;;;14.20;12.73;;;24.80;85.70;;;;;;3608843;39;20666;-48
2021/04/22 06:52:41;;;;;;;13.30;12.30;;;24.80;85.80;;;;;;3608641;39;20484;-45
2021/04/22 06:55:13;;;;;;;13.77;12.47;;;24.80;85.90;;;;;;3606821;39;20709;-45
2021/04/22 06:57:40;;;;;;;14.40;13.00;;;24.70;86.00;;;;;;3607422;39;20669;-46
2021/04/22 07:00:09;;;;;;;16.20;12.50;;;24.70;86.30;;;;;;3586532;39;21017;-46
2021/04/22 07:02:37;;;;;;;14.37;12.90;;;24.70;86.40;;;;;;3604786;39;20499;-47
2021/04/22 07:05:04;;;;;;;15.23;12.53;;;24.70;86.60;;;;;;3599861;39;21072;-46
2021/04/22 07:07:31;;;;;;;15.07;13.50;;;24.70;86.90;;;;;;3595462;39;20555;-45
2021/04/22 07:09:58;;;;;;;13.90;12.70;;;24.60;86.90;;;;;;3595023;39;20898;-46
2021/04/22 07:12:25;;;;;;;15.60;12.23;;;24.60;87.00;;;;;;3596206;39;20466;-47
2021/04/22 07:14:52;;;;;;;14.33;13.23;;;24.60;87.20;;;;;;3597007;39;20571;-46
2021/04/22 07:17:18;;;;;;;14.33;13.03;;;24.60;87.20;;;;;;3594512;39;20922;-46
2021/04/22 07:19:45;;;;;;;14.53;13.30;;;24.60;87.40;;;;;;3594640;39;20728;-46
2021/04/22 07:22:11;;;;;;;13.67;12.40;;;24.60;87.50;;;;;;3605061;39;20470;-46
2021/04/22 07:24:39;;;;;;;14.43;13.03;;;24.60;87.60;;;;;;3598669;39;20481;-46
2021/04/22 07:27:06;;;;;;;13.93;12.80;;;24.60;87.70;;;;;;3588974;39;20532;-47
2021/04/22 07:29:33;;;;;;;15.57;13.20;;;24.60;87.70;;;;;;3590753;39;20533;-47
2021/04/22 07:32:00;;;;;;;15.03;12.33;;;24.60;87.80;;;;;;3591481;39;20945;-46
2021/04/22 07:34:26;;;;;;;13.73;12.53;;;24.60;87.90;;;;;;3590524;39;20505;-46
2021/04/22 07:36:54;;;;;;;13.47;12.23;;;24.60;88.00;;;;;;3589900;39;20502;-46
2021/04/22 07:39:21;;;;;;;14.07;12.87;;;24.60;88.00;;;;;;3589461;39;20480;-47
2021/04/22 07:41:49;;;;;;;14.10;12.73;;;24.50;88.00;;;;;;3590059;39;20466;-46
2021/04/22 07:44:15;;;;;;;13.80;12.60;;;24.50;88.10;;;;;;3594959;39;20908;-47
2021/04/22 07:46:42;;;;;;;12.83;11.83;;;24.50;88.10;;;;;;3592303;39;20566;-46
2021/04/22 07:49:10;;;;;;;12.87;11.63;;;24.50;88.10;;;;;;3596419;39;20482;-46
2021/04/22 07:51:37;;;;;;;12.70;11.53;;;24.60;88.30;;;;;;3592391;39;20500;-47
2021/04/22 07:54:07;;;;;;;12.90;11.67;;;24.50;88.20;;;;;;3599163;39;20487;-45
2021/04/22 07:56:34;;;;;;;12.60;11.60;;;24.50;88.20;;;;;;3597143;39;20570;-46
2021/04/22 07:59:01;;;;;;;13.13;11.83;;;24.50;88.30;;;;;;3593149;39;20481;-46
2021/04/22 08:01:29;;;;;;;13.43;12.37;;;24.50;88.30;;;;;;3599821;39;20886;-47
2021/04/22 08:03:56;;;;;;;17.40;12.37;;;24.50;88.30;;;;;;3594108;39;20503;-47
2021/04/22 08:06:23;;;;;;;13.13;11.83;;;24.50;88.40;;;;;;3590061;39;20485;-46
2021/04/22 08:08:49;;;;;;;13.50;12.50;;;24.50;88.40;;;;;;3600914;39;20476;-46
2021/04/22 08:11:16;;;;;;;13.07;12.03;;;24.50;88.40;;;;;;3594721;39;20494;-46
2021/04/22 08:13:42;;;;;;;13.80;12.73;;;24.50;88.40;;;;;;3588732;39;20477;-46
2021/04/22 08:16:10;;;;;;;17.03;12.73;;;24.50;88.40;;;;;;3589694;39;20492;-46
2021/04/22 08:18:37;;;;;;;13.73;12.50;;;24.50;88.40;;;;;;3587421;39;20487;-46
2021/04/22 08:21:04;;;;;;;13.17;11.93;;;24.50;88.50;;;;;;3589969;39;20510;-46
2021/04/22 08:23:32;;;;;;;13.53;12.37;;;24.50;88.50;;;;;;3589976;39;20489;-46
2021/04/22 08:26:04;;;;;;;13.47;12.37;;;24.40;88.50;;;;;;3595211;39;20545;-47
2021/04/22 08:28:31;;;;;;;14.17;11.73;;;24.40;88.50;;;;;;3596815;39;20493;-46
2021/04/22 08:31:00;;;;;;;13.83;12.60;;;24.40;88.60;;;;;;3609648;39;20532;-46
2021/04/22 08:33:31;;;;;;;13.10;12.10;;;24.40;88.60;;;;;;3610202;39;20885;-47
2021/04/22 08:35:59;;;;;;;13.73;12.30;;;24.40;88.60;;;;;;3609012;39;20513;-45
2021/04/22 08:38:26;;;;;;;13.83;12.60;;;24.40;88.60;;;;;;3609237;39;21141;-46
2021/04/22 08:40:53;;;;;;;13.47;12.20;;;24.40;88.60;;;;;;3602785;39;20686;-48
2021/04/22 08:43:20;;;;;;;13.27;12.10;;;24.40;88.60;;;;;;3602222;39;20955;-46
2021/04/22 08:45:48;;;;;;;13.93;12.77;;;24.40;88.60;;;;;;3599140;39;20482;-47
2021/04/22 08:48:16;;;;;;;14.63;12.83;;;24.40;88.70;;;;;;3602775;39;20608;-46
2021/04/22 08:50:47;;;;;;;13.93;12.73;;;24.40;88.70;;;;;;3602205;39;20501;-46
2021/04/22 08:53:17;;;;;;;12.97;11.87;;;24.40;88.70;;;;;;3598716;39;20950;-46
2021/04/22 08:55:46;;;;;;;12.70;11.60;;;24.40;88.70;;;;;;3610033;39;20490;-47
2021/04/22 08:58:13;;;;;;;13.00;12.00;;;24.40;88.70;;;;;;3591801;39;20468;-46
2021/04/22 09:00:43;;;;;;;13.40;12.50;;;24.40;88.70;;;;;;3598138;39;21327;-46
2021/04/22 09:03:10;;;;;;;14.37;12.97;;;24.40;88.70;;;;;;3611204;39;20488;-46
2021/04/22 09:05:36;;;;;;;11.30;10.60;;;24.40;88.80;;;;;;3608324;39;20463;-46
2021/04/22 09:08:05;;;;;;;13.90;12.70;;;24.40;88.80;;;;;;3591266;39;20496;-46
2021/04/22 09:10:31;;;;;;;13.00;12.00;;;24.40;88.80;;;;;;3602056;39;20481;-46
2021/04/22 09:13:03;;;;;;;13.07;11.90;;;24.40;88.80;;;;;;3600607;39;20533;-47
2021/04/22 09:15:32;;;;;;;14.17;12.80;;;24.40;88.90;;;;;;3603309;39;20589;-46
2021/04/22 09:18:00;;;;;;;13.87;12.47;;;24.40;89.00;;;;;;3601087;39;20482;-47
2021/04/22 09:20:30;;;;;;;12.57;11.87;;;24.30;89.10;;;;;;3602408;39;20581;-47
2021/04/22 09:22:57;;;;;;;14.77;13.30;;;24.30;89.20;;;;;;3605062;39;20508;-46
2021/04/22 09:25:26;;;;;;;13.17;12.07;;;24.30;89.20;;;;;;3601097;39;20787;-45
2021/04/22 09:28:04;;;;;;;13.30;12.20;;;24.30;89.20;;;;;;3606059;39;20704;-47
2021/04/22 09:30:34;;;;;;;13.07;11.97;;;24.30;89.30;;;;;;3609731;39;20511;-45
2021/04/22 09:33:01;;;;;;;12.67;11.67;;;24.30;89.30;;;;;;3611972;39;20492;-48
2021/04/22 09:35:28;;;;;;;12.27;11.27;;;24.30;89.30;;;;;;3596693;39;20496;-47
2021/04/22 09:37:58;;;;;;;13.20;11.90;;;24.30;89.30;;;;;;3598597;39;20582;-46
2021/04/22 09:40:28;;;;;;;12.83;11.90;;;24.30;89.40;;;;;;3604910;39;21010;-46
2021/04/22 09:42:57;;;;;;;13.63;12.50;;;24.30;89.50;;;;;;3608349;39;20469;-46
2021/04/22 09:45:26;;;;;;;12.77;11.87;;;24.20;89.40;;;;;;3609565;39;20488;-48
2021/04/22 09:47:52;;;;;;;13.13;12.17;;;24.30;90.10;;;;;;3609409;39;20469;-46
2021/04/22 09:50:22;;;;;;;12.37;11.47;;;24.30;89.70;;;;;;3608655;39;20876;-47
2021/04/22 09:52:53;;;;;;;14.67;13.20;;;24.20;89.70;;;;;;3609834;39;20494;-47
2021/04/22 09:55:22;;;;;;;12.70;11.80;;;24.20;89.70;;;;;;3603635;39;20497;-45
2021/04/22 09:57:50;;;;;;;11.83;11.00;;;24.20;89.80;;;;;;3604719;39;20529;-46
2021/04/22 10:00:24;;;;;;;11.57;10.83;;;24.20;89.90;;;;;;3606555;39;20493;-46
2021/04/22 10:02:55;;;;;;;13.60;12.37;;;24.20;89.90;;;;;;3605700;39;20576;-46
2021/04/22 10:05:24;;;;;;;12.57;11.57;;;24.20;90.00;;;;;;3597329;39;21164;-47
2021/04/22 10:08:02;;;;;;;12.43;11.53;;;24.20;90.00;;;;;;3595997;39;20509;-45
2021/04/22 10:10:28;;;;;;;12.60;11.60;;;24.20;90.00;;;;;;3603705;39;20482;-45
2021/04/22 10:13:01;;;;;;;13.33;12.13;;;24.20;90.00;;;;;;3609890;39;20485;-47
2021/04/22 10:15:30;;;;;;;12.37;11.40;;;24.20;90.00;;;;;;3610482;39;20676;-46
2021/04/22 10:17:59;;;;;;;13.40;12.20;;;24.20;90.00;;;;;;3608942;39;21291;-46
2021/04/22 10:20:27;;;;;;;12.80;11.70;;;24.10;90.00;;;;;;3612592;39;20585;-46
2021/04/22 10:23:04;;;;;;;13.50;12.50;;;24.10;90.00;;;;;;3611993;39;20502;-46
2021/04/22 10:25:32;;;;;;;13.10;11.70;;;24.20;90.00;;;;;;3611198;39;20485;-49
2021/04/22 10:28:04;;;;;;;12.03;11.13;;;24.20;90.10;;;;;;3610769;39;20564;-46
2021/04/22 10:30:31;;;;;;;13.03;12.03;;;24.20;90.10;;;;;;3609202;39;20473;-46
2021/04/22 10:32:57;;;;;;;12.83;11.73;;;24.20;90.00;;;;;;3597499;39;21419;-46
2021/04/22 10:35:27;;;;;;;12.37;11.50;;;24.20;90.00;;;;;;3600364;39;20494;-46
2021/04/22 10:37:54;;;;;;;12.00;11.10;;;24.20;90.10;;;;;;3600839;39;20478;-46
2021/04/22 10:40:23;;;;;;;12.93;12.00;;;24.20;90.10;;;;;;3604151;39;20496;-46
2021/04/22 10:42:53;;;;;;;14.03;12.63;;;24.30;90.20;;;;;;3611950;39;20850;-46
2021/04/22 10:45:21;;;;;;;13.13;11.90;;;24.30;90.20;;;;;;3603137;39;20498;-47
2021/04/22 10:47:48;;;;;;;12.97;12.00;;;24.30;90.20;;;;;;3600336;39;20586;-46
2021/04/22 10:50:17;;;;;;;13.00;11.93;;;24.20;90.20;;;;;;3604358;39;20490;-46
2021/04/22 10:52:46;;;;;;;13.13;11.93;;;24.20;90.30;;;;;;3602090;39;20499;-46
2021/04/22 10:55:17;;;;;;;12.73;11.20;;;24.30;90.30;;;;;;3600657;39;20609;-46
2021/04/22 10:57:43;;;;;;;13.57;12.17;;;24.30;90.40;;;;;;3600247;39;20926;-46
2021/04/22 11:00:13;;;;;;;12.93;11.83;;;24.20;90.30;;;;;;3597899;39;20688;-47
2021/04/22 11:02:44;;;;;;;12.60;11.43;;;24.20;90.40;;;;;;3599848;39;20934;-46
2021/04/22 11:05:22;;;;;;;13.87;12.77;;;24.30;90.40;;;;;;3600170;39;20502;-47
2021/04/22 11:07:57;;;;;;;13.27;12.07;;;24.20;90.50;;;;;;3600198;39;20498;-47
2021/04/22 11:10:32;;;;;;;13.10;12.03;;;24.20;90.50;;;;;;3608695;39;20529;-46
2021/04/22 11:13:13;;;;;;;12.90;11.90;;;24.20;90.60;;;;;;3610269;39;20488;-47
2021/04/22 11:15:40;;;;;;;11.90;10.90;;;24.20;90.60;;;;;;3608463;39;20473;-46
2021/04/22 11:18:12;;;;;;;13.60;12.17;;;24.20;90.60;;;;;;3602702;39;21132;-47
2021/04/22 11:20:41;;;;;;;14.27;11.93;;;24.20;90.60;;;;;;3591508;39;20484;-47
2021/04/22 11:23:15;;;;;;;12.50;11.50;;;24.10;90.60;;;;;;3600616;39;20549;-46
2021/04/22 11:25:49;;;;;;;13.87;12.67;;;24.10;90.60;;;;;;3601482;39;20679;-47
2021/04/22 11:28:27;;;;;;;12.57;11.47;;;24.10;90.60;;;;;;3599884;39;20473;-46
2021/04/22 11:31:05;;;;;;;12.70;11.47;;;24.10;90.60;;;;;;3601483;39;20501;-46
2021/04/22 11:33:32;;;;;;;12.20;11.33;;;24.10;90.60;;;;;;3610818;39;20576;-46
2021/04/22 11:36:10;;;;;;;12.07;10.97;;;24.10;90.60;;;;;;3613633;39;20867;-46
2021/04/22 11:38:37;;;;;;;11.47;10.67;;;24.10;90.60;;;;;;3608966;39;20474;-47
2021/04/22 11:41:06;;;;;;;11.73;10.83;;;24.10;90.60;;;;;;3602733;39;20582;-46
2021/04/22 11:43:33;;;;;;;12.13;11.20;;;24.10;90.60;;;;;;3611339;39;20593;-46
2021/04/22 11:46:00;;;;;;;13.07;12.00;;;24.10;90.60;;;;;;3608132;39;20489;-46
2021/04/22 11:48:38;;;;;;;12.90;11.90;;;24.10;90.60;;;;;;3603100;39;20484;-46
2021/04/22 11:51:05;;;;;;;12.60;11.60;;;24.10;90.60;;;;;;3611042;39;20480;-46
2021/04/22 11:53:36;;;;;;;12.93;11.70;;;24.10;90.60;;;;;;3610049;39;20599;-47
2021/04/22 11:56:04;;;;;;;12.77;11.77;;;24.10;90.60;;;;;;3602179;39;20564;-46
2021/04/22 11:58:33;;;;;;;12.10;10.73;;;24.20;90.60;;;;;;3603507;39;20481;-46
2021/04/22 12:01:02;;;;;;;13.47;12.30;;;24.10;90.60;;;;;;3611473;39;20485;-47
2021/04/22 12:03:31;;;;;;;12.73;11.43;;;24.20;90.60;;;;;;3610755;39;20485;-47
2021/04/22 12:06:00;;;;;;;13.00;11.87;;;24.10;90.60;;;;;;3611157;39;20585;-46
2021/04/22 12:08:28;;;;;;;14.60;12.10;;;24.10;90.60;;;;;;3599667;39;20485;-46
2021/04/22 12:10:55;;;;;;;13.63;11.90;;;24.10;90.60;;;;;;3608820;39;20505;-47
2021/04/22 12:13:22;;;;;;;12.67;11.70;;;24.10;90.60;;;;;;3608039;39;20481;-46
2021/04/22 12:15:50;;;;;;;12.80;11.90;;;24.10;90.70;;;;;;3606167;39;20497;-48
2021/04/22 12:18:21;;;;;;;12.60;11.70;;;24.10;90.70;;;;;;3600662;39;20485;-47
2021/04/22 12:20:49;;;;;;;13.07;11.83;;;24.10;90.70;;;;;;3603899;39;20809;-46
2021/04/22 12:23:27;;;;;;;12.23;11.20;;;24.10;90.70;;;;;;3596435;39;20470;-48
2021/04/22 12:25:53;;;;;;;12.03;11.07;;;24.10;90.70;;;;;;3608174;39;20485;-48
2021/04/22 12:28:20;;;;;;;14.20;11.20;;;24.10;90.70;;;;;;3610790;39;20476;-45
2021/04/22 12:30:48;;;;;;;12.20;11.40;;;24.10;90.70;;;;;;3608000;39;20497;-46
2021/04/22 12:33:18;;;;;;;11.47;10.70;;;24.10;90.70;;;;;;3607891;39;21030;-46